sensor_id;sensor_type;location;lat;lon;timestamp;temperature;humidity
20102;DHT22;10210;52.284;9.892;2023-01-06T00:01:27;11.40;99.90
20102;DHT22;10210;52.284;9.892;2023-01-06T00:03:54;11.40;99.90
20102;DHT22;10210;52.284;9.892;2023-01-06T00:06:26;11.40;99.90
20102;DHT22;10210;52.284;9.892;2023-01-06T00:08:58;11.40;99.90
20102;DHT22;10210;52.284;9.892;2023-01-06T00:11:26;11.30;99.90
20102;DHT22;10210;52.284;9.892;2023-01-06T00:13:54;11.40;99.90
20102;DHT22;10210;52.284;9.892;2023-01-06T00:16:21;11.40;99.90
20102;DHT22;10210;52.284;9.892;2023-01-06T00:18:47;11.30;99.90
20102;DHT22;10210;52.284;9.892;2023-01-06T00:21:14;11.30;99.90
20102;DHT22;10210;52.284;9.892;2023-01-06T00:23:40;11.30;99.90
20102;DHT22;10210;52.284;9.892;2023-01-06T00:26:08;11.30;99.90
20102;DHT22;10210;52.284;9.892;2023-01-06T00:28:34;11.30;99.90
20102;DHT22;10210;52.284;9.892;2023-01-06T00:31:11;11.40;99.90
20102;DHT22;10210;52.284;9.892;2023-01-06T00:33:38;11.40;99.90
20102;DHT22;10210;52.284;9.892;2023-01-06T00:36:06;11.40;99.90
20102;DHT22;10210;52.284;9.892;2023-01-06T00:38:33;11.40;99.90
20102;DHT22;10210;52.284;9.892;2023-01-06T00:41:09;11.40;99.90
20102;DHT22;10210;52.284;9.892;2023-01-06T00:43:58;11.40;99.90
20102;DHT22;10210;52.284;9.892;2023-01-06T00:46:26;11.40;99.90
20102;DHT22;10210;52.284;9.892;2023-01-06T00:48:57;11.40;99.90
20102;DHT22;10210;52.284;9.892;2023-01-06T00:51:23;11.40;99.90
20102;DHT22;10210;52.284;9.892;2023-01-06T00:53:48;11.40;99.90
20102;DHT22;10210;52.284;9.892;2023-01-06T00:56:14;11.40;99.90
20102;DHT22;10210;52.284;9.892;2023-01-06T00:58:40;11.40;99.90
20102;DHT22;10210;52.284;9.892;2023-01-06T01:01:07;11.40;99.90
20102;DHT22;10210;52.284;9.892;2023-01-06T01:03:34;11.40;99.90
20102;DHT22;10210;52.284;9.892;2023-01-06T01:06:03;11.50;99.90
20102;DHT22;10210;52.284;9.892;2023-01-06T01:08:31;11.40;99.90
20102;DHT22;10210;52.284;9.892;2023-01-06T01:11:08;11.50;99.90
20102;DHT22;10210;52.284;9.892;2023-01-06T01:13:35;11.50;99.90
20102;DHT22;10210;52.284;9.892;2023-01-06T01:16:08;11.50;99.90
20102;DHT22;10210;52.284;9.892;2023-01-06T01:18:34;11.50;99.90
20102;DHT22;10210;52.284;9.892;2023-01-06T01:21:00;11.50;99.90
20102;DHT22;10210;52.284;9.892;2023-01-06T01:23:26;11.50;99.90
20102;DHT22;10210;52.284;9.892;2023-01-06T01:25:56;11.50;99.90
20102;DHT22;10210;52.284;9.892;2023-01-06T01:28:22;11.60;99.90
20102;DHT22;10210;52.284;9.892;2023-01-06T01:30:48;11.50;99.90
20102;DHT22;10210;52.284;9.892;2023-01-06T01:33:13;11.50;99.90
20102;DHT22;10210;52.284;9.892;2023-01-06T01:35:39;11.60;99.90
20102;DHT22;10210;52.284;9.892;2023-01-06T01:38:04;11.50;99.90
20102;DHT22;10210;52.284;9.892;2023-01-06T01:40:30;11.50;99.90
20102;DHT22;10210;52.284;9.892;2023-01-06T01:42:56;11.60;99.90
20102;DHT22;10210;52.284;9.892;2023-01-06T01:45:27;11.60;99.90
20102;DHT22;10210;52.284;9.892;2023-01-06T01:48:30;11.60;99.90
20102;DHT22;10210;52.284;9.892;2023-01-06T01:51:01;11.60;99.90
20102;DHT22;10210;52.284;9.892;2023-01-06T01:53:35;11.60;99.90
20102;DHT22;10210;52.284;9.892;2023-01-06T01:56:08;11.60;99.90
20102;DHT22;10210;52.284;9.892;2023-01-06T01:58:41;11.60;99.90
20102;DHT22;10210;52.284;9.892;2023-01-06T02:01:11;11.60;99.90
20102;DHT22;10210;52.284;9.892;2023-01-06T02:03:39;11.60;99.90
20102;DHT22;10210;52.284;9.892;2023-01-06T02:06:16;11.60;99.90
20102;DHT22;10210;52.284;9.892;2023-01-06T02:09:02;11.60;99.90
20102;DHT22;10210;52.284;9.892;2023-01-06T02:11:42;11.60;99.90
20102;DHT22;10210;52.284;9.892;2023-01-06T02:14:13;11.60;99.90
20102;DHT22;10210;52.284;9.892;2023-01-06T02:20:38;11.60;99.90
20102;DHT22;10210;52.284;9.892;2023-01-06T02:29:03;11.60;99.90
20102;DHT22;10210;52.284;9.892;2023-01-06T02:38:20;11.70;99.90
20102;DHT22;10210;52.284;9.892;2023-01-06T02:41:26;11.70;99.90
20102;DHT22;10210;52.284;9.892;2023-01-06T02:50:00;11.70;99.90
20102;DHT22;10210;52.284;9.892;2023-01-06T02:55:52;11.70;99.90
20102;DHT22;10210;52.284;9.892;2023-01-06T02:58:31;11.70;99.90
20102;DHT22;10210;52.284;9.892;2023-01-06T03:01:12;11.70;99.90
20102;DHT22;10210;52.284;9.892;2023-01-06T03:03:44;11.70;99.90
20102;DHT22;10210;52.284;9.892;2023-01-06T03:06:15;11.70;99.90
20102;DHT22;10210;52.284;9.892;2023-01-06T03:08:45;11.80;99.90
20102;DHT22;10210;52.284;9.892;2023-01-06T03:11:14;11.80;99.90
20102;DHT22;10210;52.284;9.892;2023-01-06T03:14:03;11.80;99.90
20102;DHT22;10210;52.284;9.892;2023-01-06T03:16:34;11.80;99.90
20102;DHT22;10210;52.284;9.892;2023-01-06T03:19:00;11.80;99.90
20102;DHT22;10210;52.284;9.892;2023-01-06T03:21:31;11.90;99.90
20102;DHT22;10210;52.284;9.892;2023-01-06T03:24:04;11.90;99.90
20102;DHT22;10210;52.284;9.892;2023-01-06T03:26:32;11.90;99.90
20102;DHT22;10210;52.284;9.892;2023-01-06T03:28:58;11.90;99.90
20102;DHT22;10210;52.284;9.892;2023-01-06T03:38:01;11.90;99.90
20102;DHT22;10210;52.284;9.892;2023-01-06T03:40:46;12.00;99.90
20102;DHT22;10210;52.284;9.892;2023-01-06T03:46:15;12.00;99.90
20102;DHT22;10210;52.284;9.892;2023-01-06T03:49:04;12.00;99.90
20102;DHT22;10210;52.284;9.892;2023-01-06T03:51:56;12.00;99.90
20102;DHT22;10210;52.284;9.892;2023-01-06T03:57:10;11.90;99.90
20102;DHT22;10210;52.284;9.892;2023-01-06T03:59:48;11.90;99.90
20102;DHT22;10210;52.284;9.892;2023-01-06T04:02:19;11.90;99.90
20102;DHT22;10210;52.284;9.892;2023-01-06T04:05:15;11.90;99.90
20102;DHT22;10210;52.284;9.892;2023-01-06T04:07:44;11.90;99.90
20102;DHT22;10210;52.284;9.892;2023-01-06T04:10:11;11.90;99.90
20102;DHT22;10210;52.284;9.892;2023-01-06T04:12:38;11.90;99.90
20102;DHT22;10210;52.284;9.892;2023-01-06T04:15:16;11.90;99.90
20102;DHT22;10210;52.284;9.892;2023-01-06T04:17:45;11.90;99.90
20102;DHT22;10210;52.284;9.892;2023-01-06T04:20:18;11.90;99.90
20102;DHT22;10210;52.284;9.892;2023-01-06T04:22:49;11.90;99.90
20102;DHT22;10210;52.284;9.892;2023-01-06T04:25:14;11.90;99.90
20102;DHT22;10210;52.284;9.892;2023-01-06T04:27:41;12.00;99.90
20102;DHT22;10210;52.284;9.892;2023-01-06T04:30:08;12.00;99.90
20102;DHT22;10210;52.284;9.892;2023-01-06T04:32:34;11.90;99.90
20102;DHT22;10210;52.284;9.892;2023-01-06T04:34:59;11.90;99.90
20102;DHT22;10210;52.284;9.892;2023-01-06T04:37:25;11.90;99.90
20102;DHT22;10210;52.284;9.892;2023-01-06T04:39:50;11.90;99.90
20102;DHT22;10210;52.284;9.892;2023-01-06T04:42:16;12.00;99.90
20102;DHT22;10210;52.284;9.892;2023-01-06T04:44:42;12.00;99.90
20102;DHT22;10210;52.284;9.892;2023-01-06T04:47:08;12.00;99.90
20102;DHT22;10210;52.284;9.892;2023-01-06T04:49:34;12.00;99.90
20102;DHT22;10210;52.284;9.892;2023-01-06T04:52:00;12.00;99.90
20102;DHT22;10210;52.284;9.892;2023-01-06T04:54:26;12.00;99.90
20102;DHT22;10210;52.284;9.892;2023-01-06T04:56:51;12.00;99.90
20102;DHT22;10210;52.284;9.892;2023-01-06T04:59:17;12.00;99.90
20102;DHT22;10210;52.284;9.892;2023-01-06T05:01:43;12.00;99.90
20102;DHT22;10210;52.284;9.892;2023-01-06T05:04:09;12.00;99.90
20102;DHT22;10210;52.284;9.892;2023-01-06T05:06:35;12.00;99.90
20102;DHT22;10210;52.284;9.892;2023-01-06T05:09:01;12.00;99.90
20102;DHT22;10210;52.284;9.892;2023-01-06T05:11:27;12.10;99.90
20102;DHT22;10210;52.284;9.892;2023-01-06T05:13:53;12.10;99.90
20102;DHT22;10210;52.284;9.892;2023-01-06T05:16:19;12.10;99.90
20102;DHT22;10210;52.284;9.892;2023-01-06T05:18:48;12.10;99.90
20102;DHT22;10210;52.284;9.892;2023-01-06T05:21:14;12.20;99.90
20102;DHT22;10210;52.284;9.892;2023-01-06T05:23:40;12.20;99.90
20102;DHT22;10210;52.284;9.892;2023-01-06T05:26:05;12.20;99.90
20102;DHT22;10210;52.284;9.892;2023-01-06T05:28:32;12.20;99.90
20102;DHT22;10210;52.284;9.892;2023-01-06T05:31:00;12.20;99.90
20102;DHT22;10210;52.284;9.892;2023-01-06T05:33:26;12.20;99.90
20102;DHT22;10210;52.284;9.892;2023-01-06T05:35:57;12.20;99.90
20102;DHT22;10210;52.284;9.892;2023-01-06T05:38:27;12.20;99.90
20102;DHT22;10210;52.284;9.892;2023-01-06T05:40:53;12.20;99.90
20102;DHT22;10210;52.284;9.892;2023-01-06T05:43:21;12.20;99.90
20102;DHT22;10210;52.284;9.892;2023-01-06T05:45:47;12.20;99.90
20102;DHT22;10210;52.284;9.892;2023-01-06T05:48:12;12.20;99.90
20102;DHT22;10210;52.284;9.892;2023-01-06T05:50:38;12.20;99.90
20102;DHT22;10210;52.284;9.892;2023-01-06T05:53:04;12.20;99.90
20102;DHT22;10210;52.284;9.892;2023-01-06T05:55:29;12.20;99.90
20102;DHT22;10210;52.284;9.892;2023-01-06T05:57:55;12.20;99.90
20102;DHT22;10210;52.284;9.892;2023-01-06T06:00:21;12.20;99.90
20102;DHT22;10210;52.284;9.892;2023-01-06T06:02:46;12.20;99.90
20102;DHT22;10210;52.284;9.892;2023-01-06T06:05:12;12.20;99.90
20102;DHT22;10210;52.284;9.892;2023-01-06T06:07:37;12.20;99.90
20102;DHT22;10210;52.284;9.892;2023-01-06T06:10:04;12.20;99.90
20102;DHT22;10210;52.284;9.892;2023-01-06T06:12:30;12.20;99.90
20102;DHT22;10210;52.284;9.892;2023-01-06T06:14:55;12.20;99.90
20102;DHT22;10210;52.284;9.892;2023-01-06T06:17:21;12.30;99.90
20102;DHT22;10210;52.284;9.892;2023-01-06T06:19:47;12.20;99.90
20102;DHT22;10210;52.284;9.892;2023-01-06T06:22:13;12.20;99.90
20102;DHT22;10210;52.284;9.892;2023-01-06T06:24:38;12.30;99.90
20102;DHT22;10210;52.284;9.892;2023-01-06T06:27:04;12.30;99.90
20102;DHT22;10210;52.284;9.892;2023-01-06T06:29:30;12.30;99.90
20102;DHT22;10210;52.284;9.892;2023-01-06T06:31:55;12.20;99.90
20102;DHT22;10210;52.284;9.892;2023-01-06T06:34:21;12.20;99.90
20102;DHT22;10210;52.284;9.892;2023-01-06T06:36:47;12.20;99.90
20102;DHT22;10210;52.284;9.892;2023-01-06T06:39:12;12.20;99.90
20102;DHT22;10210;52.284;9.892;2023-01-06T06:41:38;12.20;99.90
20102;DHT22;10210;52.284;9.892;2023-01-06T06:44:04;12.20;99.90
20102;DHT22;10210;52.284;9.892;2023-01-06T06:46:30;12.30;99.90
20102;DHT22;10210;52.284;9.892;2023-01-06T06:48:56;12.30;99.90
20102;DHT22;10210;52.284;9.892;2023-01-06T06:51:22;12.20;99.90
20102;DHT22;10210;52.284;9.892;2023-01-06T06:53:49;12.20;99.90
20102;DHT22;10210;52.284;9.892;2023-01-06T06:56:15;12.30;99.90
20102;DHT22;10210;52.284;9.892;2023-01-06T06:58:43;12.30;99.90
20102;DHT22;10210;52.284;9.892;2023-01-06T07:01:11;12.30;99.90
20102;DHT22;10210;52.284;9.892;2023-01-06T07:03:41;12.30;99.90
20102;DHT22;10210;52.284;9.892;2023-01-06T07:06:09;12.30;99.90
20102;DHT22;10210;52.284;9.892;2023-01-06T07:08:44;12.40;99.90
20102;DHT22;10210;52.284;9.892;2023-01-06T07:11:10;12.40;99.90
20102;DHT22;10210;52.284;9.892;2023-01-06T07:13:36;12.40;99.90
20102;DHT22;10210;52.284;9.892;2023-01-06T07:16:02;12.40;99.90
20102;DHT22;10210;52.284;9.892;2023-01-06T07:18:28;12.40;99.90
20102;DHT22;10210;52.284;9.892;2023-01-06T07:20:54;12.40;99.90
20102;DHT22;10210;52.284;9.892;2023-01-06T07:23:20;12.40;99.90
20102;DHT22;10210;52.284;9.892;2023-01-06T07:25:54;12.40;99.90
20102;DHT22;10210;52.284;9.892;2023-01-06T07:28:22;12.50;99.90
20102;DHT22;10210;52.284;9.892;2023-01-06T07:30:49;12.50;99.90
20102;DHT22;10210;52.284;9.892;2023-01-06T07:33:15;12.50;99.90
20102;DHT22;10210;52.284;9.892;2023-01-06T07:35:41;12.50;99.90
20102;DHT22;10210;52.284;9.892;2023-01-06T07:38:08;12.50;99.90
20102;DHT22;10210;52.284;9.892;2023-01-06T07:40:34;12.50;99.90
20102;DHT22;10210;52.284;9.892;2023-01-06T07:43:05;12.60;99.90
20102;DHT22;10210;52.284;9.892;2023-01-06T07:45:32;12.60;99.90
20102;DHT22;10210;52.284;9.892;2023-01-06T07:47:58;12.60;99.90
20102;DHT22;10210;52.284;9.892;2023-01-06T07:50:25;12.60;99.90
20102;DHT22;10210;52.284;9.892;2023-01-06T07:52:51;12.60;99.90
20102;DHT22;10210;52.284;9.892;2023-01-06T07:55:16;12.60;99.90
20102;DHT22;10210;52.284;9.892;2023-01-06T07:57:42;12.70;99.90
20102;DHT22;10210;52.284;9.892;2023-01-06T08:00:08;12.70;99.90
20102;DHT22;10210;52.284;9.892;2023-01-06T08:02:34;12.70;99.90
20102;DHT22;10210;52.284;9.892;2023-01-06T08:05:00;12.70;99.90
20102;DHT22;10210;52.284;9.892;2023-01-06T08:07:25;12.70;99.90
20102;DHT22;10210;52.284;9.892;2023-01-06T08:09:51;12.70;99.90
20102;DHT22;10210;52.284;9.892;2023-01-06T08:12:17;12.70;99.90
20102;DHT22;10210;52.284;9.892;2023-01-06T08:14:43;12.70;99.90
20102;DHT22;10210;52.284;9.892;2023-01-06T08:17:08;12.70;99.90
20102;DHT22;10210;52.284;9.892;2023-01-06T08:19:34;12.70;99.90
20102;DHT22;10210;52.284;9.892;2023-01-06T08:22:00;12.60;99.90
20102;DHT22;10210;52.284;9.892;2023-01-06T08:24:26;12.60;99.90
20102;DHT22;10210;52.284;9.892;2023-01-06T08:26:51;12.60;99.90
20102;DHT22;10210;52.284;9.892;2023-01-06T08:29:17;12.60;99.90
20102;DHT22;10210;52.284;9.892;2023-01-06T08:31:43;12.50;99.90
20102;DHT22;10210;52.284;9.892;2023-01-06T08:34:08;12.50;99.90
20102;DHT22;10210;52.284;9.892;2023-01-06T08:36:35;12.50;99.90
20102;DHT22;10210;52.284;9.892;2023-01-06T08:39:01;12.60;99.90
20102;DHT22;10210;52.284;9.892;2023-01-06T08:41:27;12.50;99.90
20102;DHT22;10210;52.284;9.892;2023-01-06T08:43:54;12.60;99.90
20102;DHT22;10210;52.284;9.892;2023-01-06T08:46:20;12.60;99.90
20102;DHT22;10210;52.284;9.892;2023-01-06T08:48:46;12.60;99.90
20102;DHT22;10210;52.284;9.892;2023-01-06T08:51:15;12.50;99.90
20102;DHT22;10210;52.284;9.892;2023-01-06T08:53:43;12.60;99.90
20102;DHT22;10210;52.284;9.892;2023-01-06T08:56:14;12.60;99.90
20102;DHT22;10210;52.284;9.892;2023-01-06T08:58:42;12.60;99.90
20102;DHT22;10210;52.284;9.892;2023-01-06T09:01:15;12.60;99.90
20102;DHT22;10210;52.284;9.892;2023-01-06T09:03:43;12.60;99.90
20102;DHT22;10210;52.284;9.892;2023-01-06T09:06:08;12.70;99.90
20102;DHT22;10210;52.284;9.892;2023-01-06T09:08:34;12.70;99.90
20102;DHT22;10210;52.284;9.892;2023-01-06T09:11:06;12.80;99.90
20102;DHT22;10210;52.284;9.892;2023-01-06T09:13:34;12.80;99.90
20102;DHT22;10210;52.284;9.892;2023-01-06T09:16:05;12.80;99.90
20102;DHT22;10210;52.284;9.892;2023-01-06T09:18:32;12.80;99.90
20102;DHT22;10210;52.284;9.892;2023-01-06T09:20:57;12.80;99.90
20102;DHT22;10210;52.284;9.892;2023-01-06T09:23:23;12.90;99.90
20102;DHT22;10210;52.284;9.892;2023-01-06T09:25:49;12.90;99.90
20102;DHT22;10210;52.284;9.892;2023-01-06T09:28:15;12.90;99.90
20102;DHT22;10210;52.284;9.892;2023-01-06T09:30:41;13.00;99.90
20102;DHT22;10210;52.284;9.892;2023-01-06T09:33:06;13.00;99.90
20102;DHT22;10210;52.284;9.892;2023-01-06T09:35:32;13.00;99.90
20102;DHT22;10210;52.284;9.892;2023-01-06T09:37:58;13.00;99.90
20102;DHT22;10210;52.284;9.892;2023-01-06T09:40:36;13.10;99.90
20102;DHT22;10210;52.284;9.892;2023-01-06T09:46:24;13.10;99.90
20102;DHT22;10210;52.284;9.892;2023-01-06T09:49:08;13.10;99.90
20102;DHT22;10210;52.284;9.892;2023-01-06T09:51:44;13.10;99.90
20102;DHT22;10210;52.284;9.892;2023-01-06T09:54:20;13.10;99.90
20102;DHT22;10210;52.284;9.892;2023-01-06T09:56:53;13.20;99.90
20102;DHT22;10210;52.284;9.892;2023-01-06T09:59:37;13.10;99.90
20102;DHT22;10210;52.284;9.892;2023-01-06T10:02:20;13.10;99.90
20102;DHT22;10210;52.284;9.892;2023-01-06T10:04:51;13.10;99.90
20102;DHT22;10210;52.284;9.892;2023-01-06T10:07:44;13.10;99.90
20102;DHT22;10210;52.284;9.892;2023-01-06T10:10:53;13.10;99.90
20102;DHT22;10210;52.284;9.892;2023-01-06T10:16:15;13.20;99.90
20102;DHT22;10210;52.284;9.892;2023-01-06T10:19:02;13.10;99.90
20102;DHT22;10210;52.284;9.892;2023-01-06T10:22:27;13.20;99.90
20102;DHT22;10210;52.284;9.892;2023-01-06T10:25:09;13.10;99.90
20102;DHT22;10210;52.284;9.892;2023-01-06T10:27:49;13.10;99.90
20102;DHT22;10210;52.284;9.892;2023-01-06T10:30:32;13.20;99.90
20102;DHT22;10210;52.284;9.892;2023-01-06T10:33:04;13.10;99.90
20102;DHT22;10210;52.284;9.892;2023-01-06T10:35:31;13.20;99.90
20102;DHT22;10210;52.284;9.892;2023-01-06T10:38:02;13.10;99.90
20102;DHT22;10210;52.284;9.892;2023-01-06T10:40:31;13.10;99.90
20102;DHT22;10210;52.284;9.892;2023-01-06T10:43:03;13.10;99.90
20102;DHT22;10210;52.284;9.892;2023-01-06T10:45:43;13.10;99.90
20102;DHT22;10210;52.284;9.892;2023-01-06T10:48:13;13.10;99.90
20102;DHT22;10210;52.284;9.892;2023-01-06T10:50:44;13.10;99.90
20102;DHT22;10210;52.284;9.892;2023-01-06T10:53:12;13.10;99.90
20102;DHT22;10210;52.284;9.892;2023-01-06T10:55:52;13.00;99.90
20102;DHT22;10210;52.284;9.892;2023-01-06T10:58:51;13.10;99.90
20102;DHT22;10210;52.284;9.892;2023-01-06T11:01:25;13.10;99.90
20102;DHT22;10210;52.284;9.892;2023-01-06T11:04:11;13.10;99.90
20102;DHT22;10210;52.284;9.892;2023-01-06T11:06:47;13.20;99.90
20102;DHT22;10210;52.284;9.892;2023-01-06T11:09:32;13.10;99.90
20102;DHT22;10210;52.284;9.892;2023-01-06T11:15:02;13.10;99.90
20102;DHT22;10210;52.284;9.892;2023-01-06T11:17:31;13.10;99.90
20102;DHT22;10210;52.284;9.892;2023-01-06T11:22:39;13.10;99.90
20102;DHT22;10210;52.284;9.892;2023-01-06T11:27:44;13.10;99.90
20102;DHT22;10210;52.284;9.892;2023-01-06T11:30:28;13.10;99.90
20102;DHT22;10210;52.284;9.892;2023-01-06T11:32:54;13.10;99.90
20102;DHT22;10210;52.284;9.892;2023-01-06T11:35:24;13.10;99.90
20102;DHT22;10210;52.284;9.892;2023-01-06T11:37:58;13.10;99.90
20102;DHT22;10210;52.284;9.892;2023-01-06T11:40:32;13.10;99.90
20102;DHT22;10210;52.284;9.892;2023-01-06T11:43:29;13.20;99.90
20102;DHT22;10210;52.284;9.892;2023-01-06T11:45:59;13.20;99.90
20102;DHT22;10210;52.284;9.892;2023-01-06T11:48:32;13.20;99.90
20102;DHT22;10210;52.284;9.892;2023-01-06T11:51:02;13.20;99.90
20102;DHT22;10210;52.284;9.892;2023-01-06T11:53:30;13.20;99.90
20102;DHT22;10210;52.284;9.892;2023-01-06T11:56:04;13.20;99.90
20102;DHT22;10210;52.284;9.892;2023-01-06T12:01:45;13.20;99.90
20102;DHT22;10210;52.284;9.892;2023-01-06T12:04:26;13.30;99.90
20102;DHT22;10210;52.284;9.892;2023-01-06T12:07:16;13.20;99.90
20102;DHT22;10210;52.284;9.892;2023-01-06T12:09:52;13.30;99.90
20102;DHT22;10210;52.284;9.892;2023-01-06T12:12:22;13.30;99.90
20102;DHT22;10210;52.284;9.892;2023-01-06T12:14:51;13.30;99.90
20102;DHT22;10210;52.284;9.892;2023-01-06T12:17:38;13.30;99.90
20102;DHT22;10210;52.284;9.892;2023-01-06T12:20:14;13.30;99.90
20102;DHT22;10210;52.284;9.892;2023-01-06T12:22:59;13.30;99.90
20102;DHT22;10210;52.284;9.892;2023-01-06T12:25:32;13.40;99.90
20102;DHT22;10210;52.284;9.892;2023-01-06T12:28:12;13.40;99.90
20102;DHT22;10210;52.284;9.892;2023-01-06T12:30:54;13.40;99.90
20102;DHT22;10210;52.284;9.892;2023-01-06T12:37:05;13.50;99.90
20102;DHT22;10210;52.284;9.892;2023-01-06T12:43:10;13.50;99.90
20102;DHT22;10210;52.284;9.892;2023-01-06T12:45:18;13.50;99.90
20102;DHT22;10210;52.284;9.892;2023-01-06T12:47:54;13.70;99.90
20102;DHT22;10210;52.284;9.892;2023-01-06T12:50:50;13.70;99.90
20102;DHT22;10210;52.284;9.892;2023-01-06T12:53:37;13.70;99.90
20102;DHT22;10210;52.284;9.892;2023-01-06T12:56:56;13.80;99.90
20102;DHT22;10210;52.284;9.892;2023-01-06T13:07:51;14.10;99.90
20102;DHT22;10210;52.284;9.892;2023-01-06T13:10:37;14.10;99.90
20102;DHT22;10210;52.284;9.892;2023-01-06T13:15:53;14.20;99.90
20102;DHT22;10210;52.284;9.892;2023-01-06T13:18:31;14.20;99.90
20102;DHT22;10210;52.284;9.892;2023-01-06T13:21:17;14.20;99.90
20102;DHT22;10210;52.284;9.892;2023-01-06T13:29:38;14.20;99.90
20102;DHT22;10210;52.284;9.892;2023-01-06T13:38:16;14.30;99.90
20102;DHT22;10210;52.284;9.892;2023-01-06T13:40:57;14.30;99.90
20102;DHT22;10210;52.284;9.892;2023-01-06T13:43:31;14.30;99.90
20102;DHT22;10210;52.284;9.892;2023-01-06T13:46:03;14.30;99.90
20102;DHT22;10210;52.284;9.892;2023-01-06T13:48:40;14.30;99.90
20102;DHT22;10210;52.284;9.892;2023-01-06T13:51:11;14.30;99.90
20102;DHT22;10210;52.284;9.892;2023-01-06T13:53:41;14.30;99.90
20102;DHT22;10210;52.284;9.892;2023-01-06T14:03:53;14.20;99.90
20102;DHT22;10210;52.284;9.892;2023-01-06T14:11:42;14.10;99.90
20102;DHT22;10210;52.284;9.892;2023-01-06T14:14:25;14.10;99.90
20102;DHT22;10210;52.284;9.892;2023-01-06T14:16:55;14.10;99.90
20102;DHT22;10210;52.284;9.892;2023-01-06T14:19:24;14.10;99.90
20102;DHT22;10210;52.284;9.892;2023-01-06T14:24:59;14.20;99.90
20102;DHT22;10210;52.284;9.892;2023-01-06T14:30:18;14.20;99.90
20102;DHT22;10210;52.284;9.892;2023-01-06T14:35:35;14.20;99.90
20102;DHT22;10210;52.284;9.892;2023-01-06T14:38:24;14.20;99.90
20102;DHT22;10210;52.284;9.892;2023-01-06T14:41:05;14.20;99.90
20102;DHT22;10210;52.284;9.892;2023-01-06T14:43:53;14.20;99.90
20102;DHT22;10210;52.284;9.892;2023-01-06T14:46:29;14.10;99.90
20102;DHT22;10210;52.284;9.892;2023-01-06T14:49:03;14.10;99.90
20102;DHT22;10210;52.284;9.892;2023-01-06T14:51:32;14.00;99.90
20102;DHT22;10210;52.284;9.892;2023-01-06T14:54:20;14.00;99.90
20102;DHT22;10210;52.284;9.892;2023-01-06T14:56:56;13.90;99.90
20102;DHT22;10210;52.284;9.892;2023-01-06T14:59:23;13.90;99.90
20102;DHT22;10210;52.284;9.892;2023-01-06T15:02:14;13.80;99.90
20102;DHT22;10210;52.284;9.892;2023-01-06T15:04:42;13.80;99.90
20102;DHT22;10210;52.284;9.892;2023-01-06T15:07:21;13.80;99.90
20102;DHT22;10210;52.284;9.892;2023-01-06T15:09:48;13.70;99.90
20102;DHT22;10210;52.284;9.892;2023-01-06T15:12:30;13.60;99.90
20102;DHT22;10210;52.284;9.892;2023-01-06T15:15:12;13.60;99.90
20102;DHT22;10210;52.284;9.892;2023-01-06T15:17:39;13.60;99.90
20102;DHT22;10210;52.284;9.892;2023-01-06T15:20:11;13.50;99.90
20102;DHT22;10210;52.284;9.892;2023-01-06T15:22:38;13.50;99.90
20102;DHT22;10210;52.284;9.892;2023-01-06T15:25:05;13.40;99.90
20102;DHT22;10210;52.284;9.892;2023-01-06T15:27:32;13.40;99.90
20102;DHT22;10210;52.284;9.892;2023-01-06T15:29:57;13.40;99.90
20102;DHT22;10210;52.284;9.892;2023-01-06T15:32:24;13.30;99.90
20102;DHT22;10210;52.284;9.892;2023-01-06T15:34:53;13.30;99.90
20102;DHT22;10210;52.284;9.892;2023-01-06T15:37:27;13.30;99.90
20102;DHT22;10210;52.284;9.892;2023-01-06T15:39:59;13.30;99.90
20102;DHT22;10210;52.284;9.892;2023-01-06T15:42:25;13.20;99.90
20102;DHT22;10210;52.284;9.892;2023-01-06T15:45:03;13.20;99.90
20102;DHT22;10210;52.284;9.892;2023-01-06T15:47:34;13.20;99.90
20102;DHT22;10210;52.284;9.892;2023-01-06T15:50:05;13.10;99.90
20102;DHT22;10210;52.284;9.892;2023-01-06T15:52:42;13.10;99.90
20102;DHT22;10210;52.284;9.892;2023-01-06T15:55:37;13.10;99.90
20102;DHT22;10210;52.284;9.892;2023-01-06T15:58:29;13.10;99.90
20102;DHT22;10210;52.284;9.892;2023-01-06T16:01:13;13.00;99.90
20102;DHT22;10210;52.284;9.892;2023-01-06T16:03:56;13.00;99.90
20102;DHT22;10210;52.284;9.892;2023-01-06T16:06:29;13.00;99.90
20102;DHT22;10210;52.284;9.892;2023-01-06T16:12:03;12.90;99.90
20102;DHT22;10210;52.284;9.892;2023-01-06T16:14:39;12.90;99.90
20102;DHT22;10210;52.284;9.892;2023-01-06T16:17:27;12.90;99.90
20102;DHT22;10210;52.284;9.892;2023-01-06T16:20:05;12.90;99.90
20102;DHT22;10210;52.284;9.892;2023-01-06T16:22:50;12.80;99.90
20102;DHT22;10210;52.284;9.892;2023-01-06T16:25:27;12.80;99.90
20102;DHT22;10210;52.284;9.892;2023-01-06T16:28:02;12.80;99.90
20102;DHT22;10210;52.284;9.892;2023-01-06T16:30:33;12.80;99.90
20102;DHT22;10210;52.284;9.892;2023-01-06T16:33:01;12.80;99.90
20102;DHT22;10210;52.284;9.892;2023-01-06T16:35:29;12.80;99.90
20102;DHT22;10210;52.284;9.892;2023-01-06T16:37:57;12.80;99.90
20102;DHT22;10210;52.284;9.892;2023-01-06T16:40:25;12.80;99.90
20102;DHT22;10210;52.284;9.892;2023-01-06T16:43:02;12.70;99.90
20102;DHT22;10210;52.284;9.892;2023-01-06T16:47:59;12.80;99.90
20102;DHT22;10210;52.284;9.892;2023-01-06T16:55:51;12.70;99.90
20102;DHT22;10210;52.284;9.892;2023-01-06T16:58:27;12.60;99.90
20102;DHT22;10210;52.284;9.892;2023-01-06T17:00:55;12.60;99.90
20102;DHT22;10210;52.284;9.892;2023-01-06T17:03:26;12.60;99.90
20102;DHT22;10210;52.284;9.892;2023-01-06T17:05:53;12.60;99.90
20102;DHT22;10210;52.284;9.892;2023-01-06T17:08:27;12.60;99.90
20102;DHT22;10210;52.284;9.892;2023-01-06T17:10:56;12.50;99.90
20102;DHT22;10210;52.284;9.892;2023-01-06T17:13:25;12.60;99.90
20102;DHT22;10210;52.284;9.892;2023-01-06T17:19:00;12.50;99.90
20102;DHT22;10210;52.284;9.892;2023-01-06T17:21:35;12.50;99.90
20102;DHT22;10210;52.284;9.892;2023-01-06T17:24:21;12.40;99.90
20102;DHT22;10210;52.284;9.892;2023-01-06T17:26:57;12.40;99.90
20102;DHT22;10210;52.284;9.892;2023-01-06T17:29:31;12.40;99.90
20102;DHT22;10210;52.284;9.892;2023-01-06T17:32:01;12.30;99.90
20102;DHT22;10210;52.284;9.892;2023-01-06T17:34:30;12.30;99.90
20102;DHT22;10210;52.284;9.892;2023-01-06T17:37:02;12.30;99.90
20102;DHT22;10210;52.284;9.892;2023-01-06T17:39:39;12.20;99.90
20102;DHT22;10210;52.284;9.892;2023-01-06T17:44:40;12.20;99.90
20102;DHT22;10210;52.284;9.892;2023-01-06T17:52:29;12.10;99.90
20102;DHT22;10210;52.284;9.892;2023-01-06T17:57:50;12.00;99.90
20102;DHT22;10210;52.284;9.892;2023-01-06T18:00:31;12.10;99.90
20102;DHT22;10210;52.284;9.892;2023-01-06T18:03:00;12.00;99.90
20102;DHT22;10210;52.284;9.892;2023-01-06T18:10:30;12.00;99.90
20102;DHT22;10210;52.284;9.892;2023-01-06T18:13:10;11.90;99.90
20102;DHT22;10210;52.284;9.892;2023-01-06T18:15:44;11.90;99.90